sensor_id;sensor_type;location;lat;lon;timestamp;temperature;humidity
34099;DHT22;20374;49.474;10.944;2022-09-17T00:00:47;9.10;99.90
34099;DHT22;20374;49.474;10.944;2022-09-17T00:03:15;9.10;99.90
34099;DHT22;20374;49.474;10.944;2022-09-17T00:05:41;9.00;99.90
34099;DHT22;20374;49.474;10.944;2022-09-17T00:08:11;9.00;99.90
34099;DHT22;20374;49.474;10.944;2022-09-17T00:10:41;8.90;99.90
34099;DHT22;20374;49.474;10.944;2022-09-17T00:13:08;9.00;99.90
34099;DHT22;20374;49.474;10.944;2022-09-17T00:15:42;9.00;99.90
34099;DHT22;20374;49.474;10.944;2022-09-17T00:18:09;9.00;99.90
34099;DHT22;20374;49.474;10.944;2022-09-17T00:20:40;9.00;99.90
34099;DHT22;20374;49.474;10.944;2022-09-17T00:23:16;9.00;99.90
34099;DHT22;20374;49.474;10.944;2022-09-17T00:25:43;9.00;99.90
34099;DHT22;20374;49.474;10.944;2022-09-17T00:28:11;8.80;99.90
34099;DHT22;20374;49.474;10.944;2022-09-17T00:30:45;8.90;99.90
34099;DHT22;20374;49.474;10.944;2022-09-17T00:33:15;8.90;99.90
34099;DHT22;20374;49.474;10.944;2022-09-17T00:35:42;9.00;99.90
34099;DHT22;20374;49.474;10.944;2022-09-17T00:38:09;8.90;99.90
34099;DHT22;20374;49.474;10.944;2022-09-17T00:40:35;8.90;99.90
34099;DHT22;20374;49.474;10.944;2022-09-17T00:43:02;8.90;99.90
34099;DHT22;20374;49.474;10.944;2022-09-17T00:45:29;8.90;99.90
34099;DHT22;20374;49.474;10.944;2022-09-17T00:47:57;8.90;99.90
34099;DHT22;20374;49.474;10.944;2022-09-17T00:50:36;8.90;99.90
34099;DHT22;20374;49.474;10.944;2022-09-17T00:53:18;9.00;99.90
34099;DHT22;20374;49.474;10.944;2022-09-17T00:55:49;9.00;99.90
34099;DHT22;20374;49.474;10.944;2022-09-17T00:58:21;9.00;99.90
34099;DHT22;20374;49.474;10.944;2022-09-17T01:00:47;9.10;99.90
34099;DHT22;20374;49.474;10.944;2022-09-17T01:03:14;9.10;99.90
34099;DHT22;20374;49.474;10.944;2022-09-17T01:05:47;9.10;99.90
34099;DHT22;20374;49.474;10.944;2022-09-17T01:08:36;9.10;99.90
34099;DHT22;20374;49.474;10.944;2022-09-17T01:16:47;9.10;99.90
34099;DHT22;20374;49.474;10.944;2022-09-17T01:22:00;9.00;99.90
34099;DHT22;20374;49.474;10.944;2022-09-17T01:24:47;9.00;99.90
34099;DHT22;20374;49.474;10.944;2022-09-17T01:32:42;8.90;99.90
34099;DHT22;20374;49.474;10.944;2022-09-17T02:01:49;8.80;99.90
34099;DHT22;20374;49.474;10.944;2022-09-17T02:04:24;8.80;99.90
34099;DHT22;20374;49.474;10.944;2022-09-17T02:06:57;8.80;99.90
34099;DHT22;20374;49.474;10.944;2022-09-17T02:09:33;8.80;99.90
34099;DHT22;20374;49.474;10.944;2022-09-17T02:12:04;8.80;99.90
34099;DHT22;20374;49.474;10.944;2022-09-17T02:14:42;8.80;99.90
34099;DHT22;20374;49.474;10.944;2022-09-17T02:17:42;8.80;99.90
34099;DHT22;20374;49.474;10.944;2022-09-17T02:20:05;8.80;99.90
34099;DHT22;20374;49.474;10.944;2022-09-17T02:22:51;8.80;99.90
34099;DHT22;20374;49.474;10.944;2022-09-17T02:25:35;8.80;99.90
34099;DHT22;20374;49.474;10.944;2022-09-17T02:28:12;8.80;99.90
34099;DHT22;20374;49.474;10.944;2022-09-17T02:30:40;8.80;99.90
34099;DHT22;20374;49.474;10.944;2022-09-17T02:33:08;8.90;99.90
34099;DHT22;20374;49.474;10.944;2022-09-17T02:35:37;8.90;99.90
34099;DHT22;20374;49.474;10.944;2022-09-17T02:38:03;8.90;99.90
34099;DHT22;20374;49.474;10.944;2022-09-17T02:40:40;8.80;99.90
34099;DHT22;20374;49.474;10.944;2022-09-17T02:49:15;8.90;99.90
34099;DHT22;20374;49.474;10.944;2022-09-17T02:51:55;8.80;99.90
34099;DHT22;20374;49.474;10.944;2022-09-17T02:54:30;9.00;99.90
34099;DHT22;20374;49.474;10.944;2022-09-17T02:57:22;9.00;99.90
34099;DHT22;20374;49.474;10.944;2022-09-17T02:59:57;9.00;99.90
34099;DHT22;20374;49.474;10.944;2022-09-17T03:02:39;9.00;99.90
34099;DHT22;20374;49.474;10.944;2022-09-17T03:05:08;9.00;99.90
34099;DHT22;20374;49.474;10.944;2022-09-17T03:07:35;9.00;99.90
34099;DHT22;20374;49.474;10.944;2022-09-17T03:10:02;9.00;99.90
34099;DHT22;20374;49.474;10.944;2022-09-17T03:12:28;9.00;99.90
34099;DHT22;20374;49.474;10.944;2022-09-17T03:14:54;9.10;99.90
34099;DHT22;20374;49.474;10.944;2022-09-17T03:17:20;9.10;99.90
34099;DHT22;20374;49.474;10.944;2022-09-17T03:19:46;9.00;99.90
34099;DHT22;20374;49.474;10.944;2022-09-17T03:22:12;9.10;99.90
34099;DHT22;20374;49.474;10.944;2022-09-17T03:24:38;9.10;99.90
34099;DHT22;20374;49.474;10.944;2022-09-17T03:27:04;9.10;99.90
34099;DHT22;20374;49.474;10.944;2022-09-17T03:29:30;9.10;99.90
34099;DHT22;20374;49.474;10.944;2022-09-17T03:31:56;9.00;99.90
34099;DHT22;20374;49.474;10.944;2022-09-17T03:34:22;9.10;99.90
34099;DHT22;20374;49.474;10.944;2022-09-17T03:36:48;9.10;99.90
34099;DHT22;20374;49.474;10.944;2022-09-17T03:39:14;9.10;99.90
34099;DHT22;20374;49.474;10.944;2022-09-17T03:41:40;9.10;99.90
34099;DHT22;20374;49.474;10.944;2022-09-17T03:44:06;9.10;99.90
34099;DHT22;20374;49.474;10.944;2022-09-17T03:46:32;9.00;99.90
34099;DHT22;20374;49.474;10.944;2022-09-17T03:48:58;9.00;99.90
34099;DHT22;20374;49.474;10.944;2022-09-17T03:51:24;9.00;99.90
34099;DHT22;20374;49.474;10.944;2022-09-17T03:53:49;9.00;99.90
34099;DHT22;20374;49.474;10.944;2022-09-17T03:56:18;9.00;99.90
34099;DHT22;20374;49.474;10.944;2022-09-17T03:58:44;8.80;99.90
34099;DHT22;20374;49.474;10.944;2022-09-17T04:01:10;8.90;99.90
34099;DHT22;20374;49.474;10.944;2022-09-17T04:03:36;8.90;99.90
34099;DHT22;20374;49.474;10.944;2022-09-17T04:06:02;8.90;99.90
34099;DHT22;20374;49.474;10.944;2022-09-17T04:08:28;8.80;99.90
34099;DHT22;20374;49.474;10.944;2022-09-17T04:10:54;8.70;99.90
34099;DHT22;20374;49.474;10.944;2022-09-17T04:13:20;8.70;99.90
34099;DHT22;20374;49.474;10.944;2022-09-17T04:15:46;8.70;99.90
34099;DHT22;20374;49.474;10.944;2022-09-17T04:18:12;8.70;99.90
34099;DHT22;20374;49.474;10.944;2022-09-17T04:20:38;8.70;99.90
34099;DHT22;20374;49.474;10.944;2022-09-17T04:23:09;8.70;99.90
34099;DHT22;20374;49.474;10.944;2022-09-17T04:25:35;8.70;99.90
34099;DHT22;20374;49.474;10.944;2022-09-17T04:28:01;8.80;99.90
34099;DHT22;20374;49.474;10.944;2022-09-17T04:30:28;8.80;99.90
34099;DHT22;20374;49.474;10.944;2022-09-17T04:32:54;8.80;99.90
34099;DHT22;20374;49.474;10.944;2022-09-17T04:35:20;8.80;99.90
34099;DHT22;20374;49.474;10.944;2022-09-17T04:37:56;8.80;99.90
34099;DHT22;20374;49.474;10.944;2022-09-17T04:40:24;8.90;99.90
34099;DHT22;20374;49.474;10.944;2022-09-17T04:42:57;8.90;99.90
34099;DHT22;20374;49.474;10.944;2022-09-17T04:45:25;8.90;99.90
34099;DHT22;20374;49.474;10.944;2022-09-17T04:47:51;8.80;99.90
34099;DHT22;20374;49.474;10.944;2022-09-17T04:50:18;8.80;99.90
34099;DHT22;20374;49.474;10.944;2022-09-17T04:52:44;8.80;99.90
34099;DHT22;20374;49.474;10.944;2022-09-17T04:55:11;8.80;99.90
34099;DHT22;20374;49.474;10.944;2022-09-17T04:57:38;8.80;99.90
34099;DHT22;20374;49.474;10.944;2022-09-17T05:00:05;8.80;99.90
34099;DHT22;20374;49.474;10.944;2022-09-17T05:02:35;8.90;99.90
34099;DHT22;20374;49.474;10.944;2022-09-17T05:05:01;8.90;99.90
34099;DHT22;20374;49.474;10.944;2022-09-17T05:07:27;8.80;99.90
34099;DHT22;20374;49.474;10.944;2022-09-17T05:09:53;8.80;99.90
34099;DHT22;20374;49.474;10.944;2022-09-17T05:12:19;8.80;99.90
34099;DHT22;20374;49.474;10.944;2022-09-17T05:14:45;8.80;99.90
34099;DHT22;20374;49.474;10.944;2022-09-17T05:17:10;8.80;99.90
34099;DHT22;20374;49.474;10.944;2022-09-17T05:19:36;9.00;99.90
34099;DHT22;20374;49.474;10.944;2022-09-17T05:22:02;8.80;99.90
34099;DHT22;20374;49.474;10.944;2022-09-17T05:24:28;8.80;99.90
34099;DHT22;20374;49.474;10.944;2022-09-17T05:26:54;8.80;99.90
34099;DHT22;20374;49.474;10.944;2022-09-17T05:29:20;8.80;99.90
34099;DHT22;20374;49.474;10.944;2022-09-17T05:31:46;8.80;99.90
34099;DHT22;20374;49.474;10.944;2022-09-17T05:34:12;8.80;99.90
34099;DHT22;20374;49.474;10.944;2022-09-17T05:36:38;8.70;99.90
34099;DHT22;20374;49.474;10.944;2022-09-17T05:39:04;8.70;99.90
34099;DHT22;20374;49.474;10.944;2022-09-17T05:41:36;8.60;99.90
34099;DHT22;20374;49.474;10.944;2022-09-17T05:44:02;8.50;99.90
34099;DHT22;20374;49.474;10.944;2022-09-17T05:46:28;8.40;99.90
34099;DHT22;20374;49.474;10.944;2022-09-17T05:48:57;8.30;99.90
34099;DHT22;20374;49.474;10.944;2022-09-17T05:51:23;8.30;99.90
34099;DHT22;20374;49.474;10.944;2022-09-17T05:53:49;8.30;99.90
34099;DHT22;20374;49.474;10.944;2022-09-17T05:56:15;8.30;99.90
34099;DHT22;20374;49.474;10.944;2022-09-17T06:01:44;8.20;99.90
34099;DHT22;20374;49.474;10.944;2022-09-17T06:04:11;8.20;99.90
34099;DHT22;20374;49.474;10.944;2022-09-17T06:06:37;8.30;99.90
34099;DHT22;20374;49.474;10.944;2022-09-17T06:09:04;8.10;99.90
34099;DHT22;20374;49.474;10.944;2022-09-17T06:11:51;8.20;99.90
34099;DHT22;20374;49.474;10.944;2022-09-17T06:14:17;8.20;99.90
34099;DHT22;20374;49.474;10.944;2022-09-17T06:16:44;8.10;99.90
34099;DHT22;20374;49.474;10.944;2022-09-17T06:19:10;8.10;99.90
34099;DHT22;20374;49.474;10.944;2022-09-17T06:21:39;8.00;99.90
34099;DHT22;20374;49.474;10.944;2022-09-17T06:24:15;8.10;99.90
34099;DHT22;20374;49.474;10.944;2022-09-17T06:26:41;8.00;99.90
34099;DHT22;20374;49.474;10.944;2022-09-17T06:29:07;8.00;99.90
34099;DHT22;20374;49.474;10.944;2022-09-17T06:31:33;8.00;99.90
34099;DHT22;20374;49.474;10.944;2022-09-17T06:33:59;8.00;99.90
34099;DHT22;20374;49.474;10.944;2022-09-17T06:36:25;8.00;99.90
34099;DHT22;20374;49.474;10.944;2022-09-17T06:38:51;8.00;99.90
34099;DHT22;20374;49.474;10.944;2022-09-17T06:41:17;8.00;99.90
34099;DHT22;20374;49.474;10.944;2022-09-17T06:43:43;8.00;99.90
34099;DHT22;20374;49.474;10.944;2022-09-17T06:46:10;8.00;99.90
34099;DHT22;20374;49.474;10.944;2022-09-17T06:48:42;8.10;99.90
34099;DHT22;20374;49.474;10.944;2022-09-17T06:51:10;8.10;99.90
34099;DHT22;20374;49.474;10.944;2022-09-17T06:53:37;8.10;99.90
34099;DHT22;20374;49.474;10.944;2022-09-17T06:56:04;8.00;99.90
34099;DHT22;20374;49.474;10.944;2022-09-17T06:58:30;8.10;99.90
34099;DHT22;20374;49.474;10.944;2022-09-17T07:01:00;8.20;99.90
34099;DHT22;20374;49.474;10.944;2022-09-17T07:03:27;8.20;99.90
34099;DHT22;20374;49.474;10.944;2022-09-17T07:05:53;8.20;99.90
34099;DHT22;20374;49.474;10.944;2022-09-17T07:08:21;8.20;99.90
34099;DHT22;20374;49.474;10.944;2022-09-17T07:10:47;8.30;99.90
34099;DHT22;20374;49.474;10.944;2022-09-17T07:13:14;8.30;99.90
34099;DHT22;20374;49.474;10.944;2022-09-17T07:15:40;8.30;99.90
34099;DHT22;20374;49.474;10.944;2022-09-17T07:18:10;8.30;99.90
34099;DHT22;20374;49.474;10.944;2022-09-17T07:20:52;8.30;99.90
34099;DHT22;20374;49.474;10.944;2022-09-17T07:23:31;8.30;99.90
34099;DHT22;20374;49.474;10.944;2022-09-17T07:26:05;8.40;99.90
34099;DHT22;20374;49.474;10.944;2022-09-17T07:28:32;8.40;99.90
34099;DHT22;20374;49.474;10.944;2022-09-17T07:31:02;8.40;99.90
34099;DHT22;20374;49.474;10.944;2022-09-17T07:33:28;8.30;99.90
34099;DHT22;20374;49.474;10.944;2022-09-17T07:35:59;8.30;99.90
34099;DHT22;20374;49.474;10.944;2022-09-17T07:38:29;8.40;99.90
34099;DHT22;20374;49.474;10.944;2022-09-17T07:41:06;8.40;99.90
34099;DHT22;20374;49.474;10.944;2022-09-17T07:43:33;8.40;99.90
34099;DHT22;20374;49.474;10.944;2022-09-17T07:46:01;8.40;99.90
34099;DHT22;20374;49.474;10.944;2022-09-17T07:48:29;8.30;99.90
34099;DHT22;20374;49.474;10.944;2022-09-17T07:51:01;8.40;99.90
34099;DHT22;20374;49.474;10.944;2022-09-17T07:53:28;8.40;99.90
34099;DHT22;20374;49.474;10.944;2022-09-17T07:55:57;8.50;99.90
34099;DHT22;20374;49.474;10.944;2022-09-17T07:58:29;8.50;99.90
34099;DHT22;20374;49.474;10.944;2022-09-17T08:01:02;8.50;99.90
34099;DHT22;20374;49.474;10.944;2022-09-17T08:03:29;8.50;99.90
34099;DHT22;20374;49.474;10.944;2022-09-17T08:06:10;8.50;99.90
34099;DHT22;20374;49.474;10.944;2022-09-17T08:08:37;8.50;99.90
34099;DHT22;20374;49.474;10.944;2022-09-17T08:11:14;8.50;99.90
34099;DHT22;20374;49.474;10.944;2022-09-17T08:13:40;8.50;99.90
34099;DHT22;20374;49.474;10.944;2022-09-17T08:16:09;8.50;99.90
34099;DHT22;20374;49.474;10.944;2022-09-17T08:18:36;8.50;99.90
34099;DHT22;20374;49.474;10.944;2022-09-17T08:21:04;8.60;99.90
34099;DHT22;20374;49.474;10.944;2022-09-17T08:23:32;8.60;99.90
34099;DHT22;20374;49.474;10.944;2022-09-17T08:25:59;8.60;99.90
34099;DHT22;20374;49.474;10.944;2022-09-17T08:28:27;8.60;99.90
34099;DHT22;20374;49.474;10.944;2022-09-17T08:30:53;8.60;99.90
34099;DHT22;20374;49.474;10.944;2022-09-17T08:33:24;8.60;99.90
34099;DHT22;20374;49.474;10.944;2022-09-17T08:35:54;8.60;99.90
34099;DHT22;20374;49.474;10.944;2022-09-17T08:38:24;8.70;99.90
34099;DHT22;20374;49.474;10.944;2022-09-17T08:41:18;8.70;99.90
34099;DHT22;20374;49.474;10.944;2022-09-17T08:46:49;8.70;99.90
34099;DHT22;20374;49.474;10.944;2022-09-17T08:57:34;9.10;99.90
34099;DHT22;20374;49.474;10.944;2022-09-17T09:00:13;9.10;99.90
34099;DHT22;20374;49.474;10.944;2022-09-17T09:02:45;9.20;99.90
34099;DHT22;20374;49.474;10.944;2022-09-17T09:05:22;9.20;99.90
34099;DHT22;20374;49.474;10.944;2022-09-17T09:08:10;9.40;99.90
34099;DHT22;20374;49.474;10.944;2022-09-17T09:10:50;9.50;99.90
34099;DHT22;20374;49.474;10.944;2022-09-17T09:13:20;9.60;99.90
34099;DHT22;20374;49.474;10.944;2022-09-17T09:15:55;9.70;99.90
34099;DHT22;20374;49.474;10.944;2022-09-17T09:18:25;9.80;99.90
34099;DHT22;20374;49.474;10.944;2022-09-17T09:23:56;9.80;99.90
34099;DHT22;20374;49.474;10.944;2022-09-17T09:26:45;9.90;99.90
34099;DHT22;20374;49.474;10.944;2022-09-17T09:35:22;9.70;99.90
34099;DHT22;20374;49.474;10.944;2022-09-17T09:40:35;9.60;99.90
34099;DHT22;20374;49.474;10.944;2022-09-17T09:43:24;9.60;99.90
34099;DHT22;20374;49.474;10.944;2022-09-17T09:57:46;9.80;99.90
34099;DHT22;20374;49.474;10.944;2022-09-17T10:00:38;10.00;99.90
34099;DHT22;20374;49.474;10.944;2022-09-17T10:03:29;10.20;99.90
34099;DHT22;20374;49.474;10.944;2022-09-17T10:06:09;10.20;99.90
34099;DHT22;20374;49.474;10.944;2022-09-17T10:08:40;10.30;99.90
34099;DHT22;20374;49.474;10.944;2022-09-17T10:13:41;10.70;99.90
34099;DHT22;20374;49.474;10.944;2022-09-17T10:16:26;10.70;99.90
34099;DHT22;20374;49.474;10.944;2022-09-17T10:21:37;10.80;99.90
34099;DHT22;20374;49.474;10.944;2022-09-17T10:24:29;11.00;99.90
34099;DHT22;20374;49.474;10.944;2022-09-17T10:27:04;11.20;99.90
34099;DHT22;20374;49.474;10.944;2022-09-17T10:29:32;11.30;99.90
34099;DHT22;20374;49.474;10.944;2022-09-17T10:31:59;11.40;99.90
34099;DHT22;20374;49.474;10.944;2022-09-17T10:34:30;11.50;99.90
34099;DHT22;20374;49.474;10.944;2022-09-17T10:36:56;11.50;99.90
34099;DHT22;20374;49.474;10.944;2022-09-17T10:44:32;10.70;99.90
34099;DHT22;20374;49.474;10.944;2022-09-17T10:47:21;10.50;99.90
34099;DHT22;20374;49.474;10.944;2022-09-17T10:49:48;10.50;99.90
34099;DHT22;20374;49.474;10.944;2022-09-17T10:52:26;10.70;99.90
34099;DHT22;20374;49.474;10.944;2022-09-17T11:00:16;11.20;99.90
34099;DHT22;20374;49.474;10.944;2022-09-17T11:11:10;11.10;99.90
34099;DHT22;20374;49.474;10.944;2022-09-17T11:18:44;11.40;99.90
34099;DHT22;20374;49.474;10.944;2022-09-17T11:24:18;11.60;99.90
34099;DHT22;20374;49.474;10.944;2022-09-17T11:27:11;11.70;99.90
34099;DHT22;20374;49.474;10.944;2022-09-17T11:30:13;11.90;99.90
34099;DHT22;20374;49.474;10.944;2022-09-17T11:35:18;12.10;99.90
34099;DHT22;20374;49.474;10.944;2022-09-17T11:38:01;12.00;99.90
34099;DHT22;20374;49.474;10.944;2022-09-17T11:48:31;12.10;99.90
34099;DHT22;20374;49.474;10.944;2022-09-17T11:51:18;12.30;99.90
34099;DHT22;20374;49.474;10.944;2022-09-17T11:53:56;12.50;99.90
34099;DHT22;20374;49.474;10.944;2022-09-17T11:56:34;12.40;99.90
34099;DHT22;20374;49.474;10.944;2022-09-17T11:59:34;12.30;99.90
34099;DHT22;20374;49.474;10.944;2022-09-17T12:04:59;12.10;99.90
34099;DHT22;20374;49.474;10.944;2022-09-17T12:07:44;12.10;99.90
34099;DHT22;20374;49.474;10.944;2022-09-17T12:15:48;12.00;99.90
34099;DHT22;20374;49.474;10.944;2022-09-17T12:21:07;12.10;99.90
34099;DHT22;20374;49.474;10.944;2022-09-17T12:23:41;12.40;99.90
34099;DHT22;20374;49.474;10.944;2022-09-17T12:28:52;13.20;99.90
34099;DHT22;20374;49.474;10.944;2022-09-17T12:37:12;13.50;99.90
34099;DHT22;20374;49.474;10.944;2022-09-17T12:43:00;13.00;99.90
34099;DHT22;20374;49.474;10.944;2022-09-17T13:01:53;12.10;99.90
34099;DHT22;20374;49.474;10.944;2022-09-17T13:04:27;12.10;99.90
34099;DHT22;20374;49.474;10.944;2022-09-17T13:10:05;12.10;99.90
34099;DHT22;20374;49.474;10.944;2022-09-17T13:12:45;12.20;99.90
34099;DHT22;20374;49.474;10.944;2022-09-17T13:20:37;12.50;99.90
34099;DHT22;20374;49.474;10.944;2022-09-17T13:23:05;12.70;99.90
34099;DHT22;20374;49.474;10.944;2022-09-17T13:25:31;12.80;99.90
34099;DHT22;20374;49.474;10.944;2022-09-17T13:28:10;12.30;99.90
34099;DHT22;20374;49.474;10.944;2022-09-17T13:30:59;11.60;99.90
34099;DHT22;20374;49.474;10.944;2022-09-17T13:36:48;10.70;99.90
34099;DHT22;20374;49.474;10.944;2022-09-17T13:39:38;10.30;99.90
34099;DHT22;20374;49.474;10.944;2022-09-17T13:42:09;10.00;99.90
34099;DHT22;20374;49.474;10.944;2022-09-17T13:44:41;9.90;99.90
34099;DHT22;20374;49.474;10.944;2022-09-17T13:47:17;9.80;99.90
34099;DHT22;20374;49.474;10.944;2022-09-17T13:49:48;9.70;99.90
34099;DHT22;20374;49.474;10.944;2022-09-17T13:52:31;9.60;99.90
34099;DHT22;20374;49.474;10.944;2022-09-17T13:54:58;9.50;99.90
34099;DHT22;20374;49.474;10.944;2022-09-17T13:57:25;9.40;99.90
34099;DHT22;20374;49.474;10.944;2022-09-17T13:59:55;9.40;99.90
34099;DHT22;20374;49.474;10.944;2022-09-17T14:05:16;9.50;99.90
34099;DHT22;20374;49.474;10.944;2022-09-17T14:07:46;9.90;99.90
34099;DHT22;20374;49.474;10.944;2022-09-17T14:21:04;11.90;99.90
34099;DHT22;20374;49.474;10.944;2022-09-17T14:23:33;12.10;99.90
34099;DHT22;20374;49.474;10.944;2022-09-17T14:26:01;12.30;99.90
34099;DHT22;20374;49.474;10.944;2022-09-17T14:28:33;12.50;99.90
34099;DHT22;20374;49.474;10.944;2022-09-17T14:31:14;12.60;99.90
34099;DHT22;20374;49.474;10.944;2022-09-17T14:33:44;12.80;99.90
34099;DHT22;20374;49.474;10.944;2022-09-17T14:36:17;12.90;99.90
34099;DHT22;20374;49.474;10.944;2022-09-17T14:38:54;12.90;99.90
34099;DHT22;20374;49.474;10.944;2022-09-17T14:41:24;13.00;99.90
34099;DHT22;20374;49.474;10.944;2022-09-17T14:44:05;13.00;99.90
34099;DHT22;20374;49.474;10.944;2022-09-17T14:46:38;13.10;99.90
34099;DHT22;20374;49.474;10.944;2022-09-17T14:49:27;13.20;99.90
34099;DHT22;20374;49.474;10.944;2022-09-17T14:51:55;13.20;99.90
34099;DHT22;20374;49.474;10.944;2022-09-17T14:54:30;13.20;99.90
34099;DHT22;20374;49.474;10.944;2022-09-17T14:57:23;13.20;99.90
34099;DHT22;20374;49.474;10.944;2022-09-17T14:59:55;13.20;99.90
34099;DHT22;20374;49.474;10.944;2022-09-17T15:04:59;13.20;99.90
34099;DHT22;20374;49.474;10.944;2022-09-17T15:07:26;13.00;99.90
34099;DHT22;20374;49.474;10.944;2022-09-17T15:09:52;12.90;99.90
34099;DHT22;20374;49.474;10.944;2022-09-17T15:12:24;12.90;99.90
34099;DHT22;20374;49.474;10.944;2022-09-17T15:14:54;12.80;99.90
34099;DHT22;20374;49.474;10.944;2022-09-17T15:17:21;12.60;99.90
34099;DHT22;20374;49.474;10.944;2022-09-17T15:19:55;12.50;99.90
34099;DHT22;20374;49.474;10.944;2022-09-17T15:22:30;12.40;99.90
34099;DHT22;20374;49.474;10.944;2022-09-17T15:27:44;12.30;99.90
34099;DHT22;20374;49.474;10.944;2022-09-17T15:30:14;12.20;99.90
34099;DHT22;20374;49.474;10.944;2022-09-17T15:32:52;12.10;99.90
34099;DHT22;20374;49.474;10.944;2022-09-17T15:35:26;12.30;99.90
34099;DHT22;20374;49.474;10.944;2022-09-17T15:38:02;12.50;99.90
34099;DHT22;20374;49.474;10.944;2022-09-17T15:40:40;12.50;99.90
34099;DHT22;20374;49.474;10.944;2022-09-17T15:45:38;12.60;99.90
34099;DHT22;20374;49.474;10.944;2022-09-17T15:50:50;12.60;99.90
34099;DHT22;20374;49.474;10.944;2022-09-17T15:53:25;12.50;99.90
34099;DHT22;20374;49.474;10.944;2022-09-17T15:56:06;12.50;99.90
34099;DHT22;20374;49.474;10.944;2022-09-17T16:08:45;12.40;99.90
34099;DHT22;20374;49.474;10.944;2022-09-17T16:11:15;12.40;99.90
34099;DHT22;20374;49.474;10.944;2022-09-17T16:13:41;12.30;99.90
34099;DHT22;20374;49.474;10.944;2022-09-17T16:16:09;12.30;99.90
34099;DHT22;20374;49.474;10.944;2022-09-17T16:18:38;12.20;99.90
34099;DHT22;20374;49.474;10.944;2022-09-17T16:21:04;12.10;99.90
34099;DHT22;20374;49.474;10.944;2022-09-17T16:23:30;12.00;99.90
34099;DHT22;20374;49.474;10.944;2022-09-17T16:25:56;11.90;99.90
34099;DHT22;20374;49.474;10.944;2022-09-17T16:28:22;11.80;99.90
34099;DHT22;20374;49.474;10.944;2022-09-17T16:30:48;11.70;99.90
34099;DHT22;20374;49.474;10.944;2022-09-17T16:33:16;11.70;99.90
34099;DHT22;20374;49.474;10.944;2022-09-17T16:35:43;11.70;99.90
34099;DHT22;20374;49.474;10.944;2022-09-17T16:38:09;11.60;99.90
34099;DHT22;20374;49.474;10.944;2022-09-17T16:40:44;11.60;99.90
34099;DHT22;20374;49.474;10.944;2022-09-17T16:43:11;11.60;99.90
34099;DHT22;20374;49.474;10.944;2022-09-17T16:45:37;11.60;99.90
34099;DHT22;20374;49.474;10.944;2022-09-17T16:48:04;11.60;99.90
34099;DHT22;20374;49.474;10.944;2022-09-17T16:50:37;11.30;99.90
34099;DHT22;20374;49.474;10.944;2022-09-17T16:56:13;10.80;99.90
34099;DHT22;20374;49.474;10.944;2022-09-17T16:58:39;10.40;99.90
34099;DHT22;20374;49.474;10.944;2022-09-17T17:01:14;10.10;99.90
34099;DHT22;20374;49.474;10.944;2022-09-17T17:03:40;9.80;99.90
34099;DHT22;20374;49.474;10.944;2022-09-17T17:06:14;9.60;99.90
34099;DHT22;20374;49.474;10.944;2022-09-17T17:08:40;9.50;99.90
34099;DHT22;20374;49.474;10.944;2022-09-17T17:11:06;9.30;99.90
34099;DHT22;20374;49.474;10.944;2022-09-17T17:13:31;9.30;99.90
34099;DHT22;20374;49.474;10.944;2022-09-17T17:15:57;9.30;99.90
34099;DHT22;20374;49.474;10.944;2022-09-17T17:18:23;9.20;99.90
34099;DHT22;20374;49.474;10.944;2022-09-17T17:20:52;9.30;99.90
34099;DHT22;20374;49.474;10.944;2022-09-17T17:23:18;9.10;99.90
34099;DHT22;20374;49.474;10.944;2022-09-17T17:25:43;9.10;99.90
34099;DHT22;20374;49.474;10.944;2022-09-17T17:28:09;9.00;99.90
34099;DHT22;20374;49.474;10.944;2022-09-17T17:30:35;8.90;99.90
34099;DHT22;20374;49.474;10.944;2022-09-17T17:33:03;8.80;99.90
34099;DHT22;20374;49.474;10.944;2022-09-17T17:35:28;8.70;99.90
34099;DHT22;20374;49.474;10.944;2022-09-17T17:37:55;8.60;99.90
34099;DHT22;20374;49.474;10.944;2022-09-17T17:40:20;8.60;99.90
34099;DHT22;20374;49.474;10.944;2022-09-17T17:42:51;8.60;99.90
34099;DHT22;20374;49.474;10.944;2022-09-17T17:45:17;8.50;99.90
34099;DHT22;20374;49.474;10.944;2022-09-17T17:47:42;8.50;99.90
34099;DHT22;20374;49.474;10.944;2022-09-17T17:50:09;8.50;99.90
34099;DHT22;20374;49.474;10.944;2022-09-17T17:52:35;8.50;99.90
34099;DHT22;20374;49.474;10.944;2022-09-17T17:55:05;8.50;99.90
34099;DHT22;20374;49.474;10.944;2022-09-17T17:57:31;8.60;99.90
34099;DHT22;20374;49.474;10.944;2022-09-17T17:59:56;8.50;99.90
34099;DHT22;20374;49.474;10.944;2022-09-17T18:02:22;8.40;99.90
34099;DHT22;20374;49.474;10.944;2022-09-17T18:04:48;8.50;99.90
34099;DHT22;20374;49.474;10.944;2022-09-17T18:07:14;8.50;99.90
34099;DHT22;20374;49.474;10.944;2022-09-17T18:09:40;8.40;99.90
34099;DHT22;20374;49.474;10.944;2022-09-17T18:12:06;8.40;99.90
34099;DHT22;20374;49.474;10.944;2022-09-17T18:14:32;8.40;99.90
34099;DHT22;20374;49.474;10.944;2022-09-17T18:16:58;8.40;99.90
34099;DHT22;20374;49.474;10.944;2022-09-17T18:19:24;8.30;99.90
34099;DHT22;20374;49.474;10.944;2022-09-17T18:21:53;8.30;99.90
34099;DHT22;20374;49.474;10.944;2022-09-17T18:24:19;8.20;99.90
34099;DHT22;20374;49.474;10.944;2022-09-17T18:26:45;8.30;99.90
34099;DHT22;20374;49.474;10.944;2022-09-17T18:29:10;8.10;99.90
34099;DHT22;20374;49.474;10.944;2022-09-17T18:31:37;8.20;99.90
34099;DHT22;20374;49.474;10.944;2022-09-17T18:34:10;8.10;99.90
34099;DHT22;20374;49.474;10.944;2022-09-17T18:36:37;8.10;99.90
34099;DHT22;20374;49.474;10.944;2022-09-17T18:39:05;8.10;99.90
34099;DHT22;20374;49.474;10.944;2022-09-17T18:41:34;8.10;99.90
34099;DHT22;20374;49.474;10.944;2022-09-17T18:44:02;8.10;99.90
34099;DHT22;20374;49.474;10.944;2022-09-17T18:46:29;8.10;99.90
34099;DHT22;20374;49.474;10.944;2022-09-17T18:48:58;8.10;99.90
34099;DHT22;20374;49.474;10.944;2022-09-17T18:51:26;8.20;99.90
34099;DHT22;20374;49.474;10.944;2022-09-17T18:53:52;8.20;99.90
34099;DHT22;20374;49.474;10.944;2022-09-17T18:56:27;8.10;99.90
34099;DHT22;20374;49.474;10.944;2022-09-17T18:58:55;8.20;99.90
34099;DHT22;20374;49.474;10.944;2022-09-17T19:01:24;8.20;99.90
34099;DHT22;20374;49.474;10.944;2022-09-17T19:03:50;8.20;99.90
34099;DHT22;20374;49.474;10.944;2022-09-17T19:06:16;8.20;99.90
34099;DHT22;20374;49.474;10.944;2022-09-17T19:08:43;8.20;99.90
34099;DHT22;20374;49.474;10.944;2022-09-17T19:11:10;8.20;99.90
34099;DHT22;20374;49.474;10.944;2022-09-17T19:13:42;8.20;99.90
34099;DHT22;20374;49.474;10.944;2022-09-17T19:16:09;8.20;99.90
34099;DHT22;20374;49.474;10.944;2022-09-17T19:18:36;8.20;99.90
34099;DHT22;20374;49.474;10.944;2022-09-17T19:21:07;8.20;99.90
34099;DHT22;20374;49.474;10.944;2022-09-17T19:23:33;8.20;99.90